Time;durP1;ratioP1;P1;durP2;ratioP2;P2;SDS_P1;SDS_P2;PMS_P1;PMS_P2;Temp;Humidity;BMP_temperature;BMP_pressure;BME280_temperature;BME280_humidity;BME280_pressure;Samples;Min_cycle;Max_cycle;Signal;HPM_P1;HPM_P2
2023/07/10 00:00:53;;;;;;;5.47;3.90;;;;;;;;;;4964446;28;20183;-72
2023/07/10 00:03:57;;;;;;;8.47;3.80;;;;;;;;;;4963965;28;20214;-72
2023/07/10 00:07:01;;;;;;;6.50;3.60;;;;;;;;;;4975874;28;20175;-72
2023/07/10 00:10:07;;;;;;;8.03;4.37;;;;;;;;;;4975942;28;20178;-72
2023/07/10 00:13:11;;;;;;;7.93;3.60;;;;;;;;;;4976201;28;20222;-72
2023/07/10 00:16:19;;;;;;;8.60;3.70;;;;;;;;;;4964020;28;20179;-73
2023/07/10 00:19:23;;;;;;;9.00;4.27;;;;;;;;;;4975619;28;20195;-73
2023/07/10 00:22:28;;;;;;;6.77;3.87;;;;;;;;;;4976034;28;20218;-72
2023/07/10 00:25:32;;;;;;;7.63;4.23;;;;;;;;;;4975435;28;20222;-73
2023/07/10 00:28:36;;;;;;;8.80;4.50;;;;;;;;;;4963613;28;20646;-73
2023/07/10 00:31:40;;;;;;;6.67;3.67;;;;;;;;;;4963729;28;20689;-72
2023/07/10 00:34:44;;;;;;;5.80;4.20;;;;;;;;;;4963609;28;20179;-73
2023/07/10 00:38:00;;;;;;;4.80;3.53;;;;;;;;;;4963535;28;20183;-73
2023/07/10 00:41:06;;;;;;;7.17;4.00;;;;;;;;;;4963620;28;20187;-73
2023/07/10 00:44:12;;;;;;;7.03;4.50;;;;;;;;;;4963507;28;20210;-73
2023/07/10 00:47:25;;;;;;;6.23;3.97;;;;;;;;;;4952167;28;20214;-72
2023/07/10 00:50:45;;;;;;;6.90;3.90;;;;;;;;;;4963517;28;20186;-73
2023/07/10 00:53:52;;;;;;;6.90;3.60;;;;;;;;;;4963606;28;20183;-73
2023/07/10 00:56:57;;;;;;;6.47;3.97;;;;;;;;;;4975134;28;20202;-73
2023/07/10 01:00:18;;;;;;;7.93;3.83;;;;;;;;;;4975278;28;20182;-73
2023/07/10 01:03:24;;;;;;;6.87;4.13;;;;;;;;;;4941179;28;20227;-73
2023/07/10 01:06:32;;;;;;;7.40;4.33;;;;;;;;;;4963196;28;20171;-73
2023/07/10 01:09:37;;;;;;;5.50;3.60;;;;;;;;;;4951974;28;20183;-73
2023/07/10 01:12:43;;;;;;;5.20;4.10;;;;;;;;;;4952109;28;20222;-73
2023/07/10 01:15:48;;;;;;;6.30;4.10;;;;;;;;;;4963112;28;20179;-73
2023/07/10 01:18:53;;;;;;;6.13;3.83;;;;;;;;;;4962658;28;20203;-72
2023/07/10 01:21:58;;;;;;;10.10;4.10;;;;;;;;;;4974940;28;20226;-73
2023/07/10 01:25:03;;;;;;;5.73;3.53;;;;;;;;;;4962877;28;20210;-72
2023/07/10 01:28:14;;;;;;;6.20;4.20;;;;;;;;;;4951866;28;20191;-73
2023/07/10 01:31:20;;;;;;;5.97;4.17;;;;;;;;;;4974742;28;20191;-72
2023/07/10 01:34:35;;;;;;;6.83;3.93;;;;;;;;;;4974055;28;20194;-73
2023/07/10 01:37:39;;;;;;;6.53;4.10;;;;;;;;;;4963112;28;20191;-73
2023/07/10 01:40:50;;;;;;;7.17;4.13;;;;;;;;;;4974925;28;20190;-73
2023/07/10 01:43:54;;;;;;;5.43;3.60;;;;;;;;;;4951996;28;20187;-73
2023/07/10 01:47:03;;;;;;;8.03;4.67;;;;;;;;;;4951309;28;20202;-73
2023/07/10 01:50:08;;;;;;;6.77;3.90;;;;;;;;;;4962984;28;20187;-73
2023/07/10 01:53:13;;;;;;;7.60;4.30;;;;;;;;;;4962813;28;20215;-72
2023/07/10 01:56:20;;;;;;;5.53;3.80;;;;;;;;;;4963199;28;20179;-73
2023/07/10 01:59:25;;;;;;;6.47;3.87;;;;;;;;;;4962853;28;20179;-73
2023/07/10 02:02:29;;;;;;;6.03;4.17;;;;;;;;;;4962369;28;20218;-72
2023/07/10 02:05:33;;;;;;;8.87;4.03;;;;;;;;;;4962192;28;20218;-73
2023/07/10 02:08:37;;;;;;;6.40;3.93;;;;;;;;;;4974633;28;20539;-72
2023/07/10 02:11:42;;;;;;;7.03;3.97;;;;;;;;;;4962458;28;20583;-73
2023/07/10 02:14:46;;;;;;;5.73;4.60;;;;;;;;;;4962173;28;20179;-73
2023/07/10 02:17:51;;;;;;;7.10;4.40;;;;;;;;;;4962449;28;20179;-73
2023/07/10 02:20:55;;;;;;;9.87;4.57;;;;;;;;;;4974257;28;20198;-73
2023/07/10 02:24:00;;;;;;;9.10;4.10;;;;;;;;;;4962511;28;20179;-73
2023/07/10 02:27:04;;;;;;;7.37;4.43;;;;;;;;;;4962101;28;20176;-73
2023/07/10 02:30:09;;;;;;;6.90;4.07;;;;;;;;;;4962840;28;20662;-72
2023/07/10 02:33:18;;;;;;;6.37;4.27;;;;;;;;;;4961964;28;20219;-73
2023/07/10 02:36:26;;;;;;;6.90;4.37;;;;;;;;;;4962253;28;20544;-72
2023/07/10 02:39:31;;;;;;;6.27;4.53;;;;;;;;;;4951361;28;20179;-72
2023/07/10 02:42:36;;;;;;;6.87;4.47;;;;;;;;;;4951190;28;20215;-72
2023/07/10 02:45:41;;;;;;;9.83;4.70;;;;;;;;;;4953072;28;20211;-72
2023/07/10 02:48:46;;;;;;;8.27;4.50;;;;;;;;;;4965363;28;20547;-73
2023/07/10 02:51:50;;;;;;;6.90;4.07;;;;;;;;;;4965672;28;20218;-72
2023/07/10 02:54:54;;;;;;;8.30;4.50;;;;;;;;;;4977237;28;20170;-73
2023/07/10 02:58:00;;;;;;;9.80;4.93;;;;;;;;;;4965838;28;20187;-73
2023/07/10 03:01:04;;;;;;;10.73;4.50;;;;;;;;;;4977447;28;20187;-73
2023/07/10 03:04:08;;;;;;;8.03;4.33;;;;;;;;;;4977067;28;20194;-73
2023/07/10 03:07:12;;;;;;;8.80;4.30;;;;;;;;;;4977494;28;20171;-73
2023/07/10 03:10:18;;;;;;;6.30;4.33;;;;;;;;;;4957862;29;20207;-73
2023/07/10 03:13:23;;;;;;;7.73;4.27;;;;;;;;;;4945994;29;20219;-73
2023/07/10 03:16:27;;;;;;;6.17;4.30;;;;;;;;;;4923887;29;20199;-73
2023/07/10 03:19:31;;;;;;;10.43;5.13;;;;;;;;;;4945917;29;20205;-73
2023/07/10 03:22:35;;;;;;;7.50;4.70;;;;;;;;;;4957683;29;20232;-73
2023/07/10 03:25:40;;;;;;;7.77;4.30;;;;;;;;;;4934762;29;20211;-73
2023/07/10 03:28:44;;;;;;;6.93;4.03;;;;;;;;;;4957344;29;20647;-73
2023/07/10 03:31:48;;;;;;;10.57;4.47;;;;;;;;;;4945944;29;20214;-73
2023/07/10 03:34:52;;;;;;;9.37;4.63;;;;;;;;;;4956952;29;20189;-73
2023/07/10 03:37:56;;;;;;;7.77;4.60;;;;;;;;;;4945672;29;20187;-73
2023/07/10 03:41:00;;;;;;;9.03;4.53;;;;;;;;;;4956867;29;20183;-73
2023/07/10 03:44:05;;;;;;;7.53;4.83;;;;;;;;;;4957361;29;20176;-73
2023/07/10 03:47:09;;;;;;;7.63;4.20;;;;;;;;;;4956886;29;20199;-72
2023/07/10 03:50:13;;;;;;;7.30;4.60;;;;;;;;;;4991185;23;20234;-84
2023/07/10 03:53:17;;;;;;;5.63;3.90;;;;;;;;;;4981745;28;20199;-85
2023/07/10 03:56:21;;;;;;;7.13;4.20;;;;;;;;;;4957143;28;20641;-85
2023/07/10 03:59:25;;;;;;;11.73;4.50;;;;;;;;;;4948724;29;20567;-85
2023/07/10 04:02:30;;;;;;;9.20;4.20;;;;;;;;;;4960244;29;20538;-85
2023/07/10 04:05:34;;;;;;;8.07;4.53;;;;;;;;;;4970526;28;20207;-85
2023/07/10 04:08:40;;;;;;;8.00;4.50;;;;;;;;;;4969936;28;20702;-84
2023/07/10 04:11:44;;;;;;;9.83;4.20;;;;;;;;;;4947470;29;20199;-85
2023/07/10 04:14:49;;;;;;;5.77;4.03;;;;;;;;;;4947938;29;20180;-85
2023/07/10 04:17:53;;;;;;;8.40;4.30;;;;;;;;;;4946930;29;20187;-84
2023/07/10 04:20:59;;;;;;;11.63;4.80;;;;;;;;;;4956888;29;20183;-84
2023/07/10 04:24:04;;;;;;;7.87;4.13;;;;;;;;;;4956583;29;20654;-84
2023/07/10 04:27:08;;;;;;;5.87;3.90;;;;;;;;;;4956903;29;20215;-84
2023/07/10 04:30:12;;;;;;;8.17;4.53;;;;;;;;;;4960569;29;20223;-85
2023/07/10 04:33:18;;;;;;;5.57;3.93;;;;;;;;;;4956434;29;20187;-85
2023/07/10 04:36:23;;;;;;;10.47;4.90;;;;;;;;;;4955612;29;20643;-85
2023/07/10 04:39:27;;;;;;;6.97;4.07;;;;;;;;;;4944978;29;20229;-85
2023/07/10 04:42:31;;;;;;;7.80;4.53;;;;;;;;;;4956179;29;20179;-84
2023/07/10 04:45:37;;;;;;;9.83;4.90;;;;;;;;;;4956298;29;20215;-84
2023/07/10 04:48:44;;;;;;;13.37;5.07;;;;;;;;;;4966589;28;20231;-86
2023/07/10 04:51:49;;;;;;;7.30;4.43;;;;;;;;;;4967142;28;20191;-85
2023/07/10 04:54:53;;;;;;;5.97;4.33;;;;;;;;;;4944833;29;20176;-85
2023/07/10 04:57:57;;;;;;;7.40;4.63;;;;;;;;;;4934000;29;20176;-85
2023/07/10 05:01:01;;;;;;;9.20;4.40;;;;;;;;;;4933816;29;20180;-84
2023/07/10 05:04:05;;;;;;;12.33;4.43;;;;;;;;;;4955761;28;20183;-85
2023/07/10 05:07:10;;;;;;;8.07;5.07;;;;;;;;;;4944347;28;20207;-83
2023/07/10 05:10:14;;;;;;;6.47;4.13;;;;;;;;;;4944365;29;20214;-83
2023/07/10 05:13:18;;;;;;;9.20;4.53;;;;;;;;;;4955714;29;20180;-82
2023/07/10 05:16:24;;;;;;;6.13;4.53;;;;;;;;;;4955665;29;20520;-82
2023/07/10 05:19:32;;;;;;;8.90;5.13;;;;;;;;;;4955417;29;20555;-82
2023/07/10 05:22:36;;;;;;;8.20;4.23;;;;;;;;;;4944829;29;20179;-82
2023/07/10 05:25:40;;;;;;;7.03;4.57;;;;;;;;;;4955476;29;20207;-82
2023/07/10 05:28:45;;;;;;;7.30;4.60;;;;;;;;;;4955512;29;20219;-85
2023/07/10 05:31:49;;;;;;;9.73;4.63;;;;;;;;;;4933156;29;20307;-84
2023/07/10 05:34:53;;;;;;;11.33;4.57;;;;;;;;;;4944166;29;20631;-85
2023/07/10 05:37:57;;;;;;;9.13;4.73;;;;;;;;;;4944580;29;20184;-85
2023/07/10 05:41:02;;;;;;;10.50;4.73;;;;;;;;;;4960332;29;20175;-85
2023/07/10 05:44:06;;;;;;;8.73;4.73;;;;;;;;;;4948867;29;20180;-85
2023/07/10 05:47:10;;;;;;;9.27;4.70;;;;;;;;;;4936416;29;20208;-85
2023/07/10 05:50:14;;;;;;;7.10;4.73;;;;;;;;;;4957572;29;20567;-84
2023/07/10 05:53:19;;;;;;;8.13;4.53;;;;;;;;;;4959124;29;20341;-84
2023/07/10 05:56:23;;;;;;;6.03;4.27;;;;;;;;;;4947309;29;20183;-81
2023/07/10 05:59:28;;;;;;;7.90;4.30;;;;;;;;;;4957922;29;20556;-81
2023/07/10 06:02:31;;;;;;;6.30;4.17;;;;;;;;;;4946787;29;20524;-81
2023/07/10 06:05:36;;;;;;;5.70;4.50;;;;;;;;;;4958139;29;20630;-81
2023/07/10 06:08:40;;;;;;;8.50;4.40;;;;;;;;;;4968738;28;20215;-81
2023/07/10 06:11:44;;;;;;;7.73;4.30;;;;;;;;;;4958645;29;20514;-82
2023/07/10 06:14:48;;;;;;;6.57;4.33;;;;;;;;;;4957875;29;20179;-82
2023/07/10 06:17:52;;;;;;;6.17;4.00;;;;;;;;;;4957425;29;20179;-81
2023/07/10 06:20:58;;;;;;;5.97;4.43;;;;;;;;;;4961759;29;20543;-85
2023/07/10 06:24:02;;;;;;;7.97;4.20;;;;;;;;;;4958806;29;20538;-85
2023/07/10 06:27:06;;;;;;;9.90;4.70;;;;;;;;;;4936239;29;20569;-84
2023/07/10 06:30:11;;;;;;;6.33;4.60;;;;;;;;;;4947332;29;20554;-85
2023/07/10 06:33:15;;;;;;;8.13;4.07;;;;;;;;;;4947092;29;20182;-85
2023/07/10 06:36:19;;;;;;;6.80;4.10;;;;;;;;;;4959809;29;20199;-81
2023/07/10 06:39:27;;;;;;;12.47;5.23;;;;;;;;;;4949779;29;20222;-82
2023/07/10 06:42:31;;;;;;;7.13;4.33;;;;;;;;;;4960958;29;20199;-83
2023/07/10 06:45:35;;;;;;;5.97;4.27;;;;;;;;;;4960978;29;20176;-82
2023/07/10 06:48:39;;;;;;;8.20;4.20;;;;;;;;;;4971419;28;20228;-82
2023/07/10 06:51:43;;;;;;;5.80;4.33;;;;;;;;;;4960552;29;20524;-82
2023/07/10 06:54:47;;;;;;;6.17;4.20;;;;;;;;;;4949173;29;20676;-82
2023/07/10 06:57:51;;;;;;;8.67;4.30;;;;;;;;;;4958578;29;20197;-82
2023/07/10 07:00:56;;;;;;;7.00;3.90;;;;;;;;;;4958116;29;20180;-82
2023/07/10 07:04:01;;;;;;;6.27;3.93;;;;;;;;;;4957525;29;20540;-82
2023/07/10 07:07:05;;;;;;;6.53;4.23;;;;;;;;;;4935817;29;20214;-81
2023/07/10 07:10:13;;;;;;;6.87;4.47;;;;;;;;;;4946836;29;20551;-82
2023/07/10 07:13:18;;;;;;;13.27;4.53;;;;;;;;;;4957829;29;20180;-82
2023/07/10 07:16:22;;;;;;;6.53;4.13;;;;;;;;;;4969273;28;20190;-82
2023/07/10 07:19:26;;;;;;;5.17;3.80;;;;;;;;;;4968878;28;20561;-83
2023/07/10 07:22:30;;;;;;;6.50;4.00;;;;;;;;;;4936017;29;20185;-83
2023/07/10 07:25:34;;;;;;;6.97;4.40;;;;;;;;;;4960294;29;20180;-81
2023/07/10 07:28:38;;;;;;;7.93;3.97;;;;;;;;;;4960047;29;20212;-81
2023/07/10 07:31:42;;;;;;;7.90;4.30;;;;;;;;;;4948239;29;20188;-81
2023/07/10 07:34:47;;;;;;;11.77;4.60;;;;;;;;;;4959891;29;20202;-82
2023/07/10 07:37:50;;;;;;;8.03;4.17;;;;;;;;;;4948172;29;20210;-82
2023/07/10 07:40:59;;;;;;;8.23;5.13;;;;;;;;;;4959910;29;20209;-82
2023/07/10 07:44:03;;;;;;;10.23;5.17;;;;;;;;;;4958335;29;20202;-81
2023/07/10 07:47:07;;;;;;;8.73;5.03;;;;;;;;;;4969614;28;20222;-82
2023/07/10 07:50:11;;;;;;;7.80;5.10;;;;;;;;;;4957774;29;20224;-81
2023/07/10 07:53:15;;;;;;;7.93;4.43;;;;;;;;;;4958386;29;20196;-82
2023/07/10 07:56:19;;;;;;;6.90;4.73;;;;;;;;;;4957592;29;20176;-81
2023/07/10 07:59:24;;;;;;;9.93;5.00;;;;;;;;;;4957559;29;20224;-81
2023/07/10 08:02:28;;;;;;;7.40;4.80;;;;;;;;;;4967531;28;20188;-81
2023/07/10 08:05:32;;;;;;;8.67;5.00;;;;;;;;;;4934229;29;20200;-81
2023/07/10 08:08:36;;;;;;;8.63;5.23;;;;;;;;;;4956441;29;20556;-81
2023/07/10 08:11:40;;;;;;;7.90;4.83;;;;;;;;;;4934909;29;20183;-81
2023/07/10 08:14:44;;;;;;;7.17;5.00;;;;;;;;;;4967553;28;20623;-81
2023/07/10 08:17:48;;;;;;;8.93;5.20;;;;;;;;;;4934717;29;20180;-81
2023/07/10 08:21:00;;;;;;;7.00;4.83;;;;;;;;;;4956231;29;20184;-81
2023/07/10 08:24:04;;;;;;;11.73;4.77;;;;;;;;;;4956196;29;20188;-80
2023/07/10 08:27:08;;;;;;;8.40;4.73;;;;;;;;;;4955861;28;20211;-81
2023/07/10 08:30:14;;;;;;;6.43;4.73;;;;;;;;;;4966904;28;20216;-81
2023/07/10 08:33:17;;;;;;;10.80;4.87;;;;;;;;;;4955831;28;20667;-81
2023/07/10 08:36:22;;;;;;;10.20;4.37;;;;;;;;;;4956330;29;20187;-81
2023/07/10 08:39:26;;;;;;;6.23;4.23;;;;;;;;;;4966872;28;20224;-81
2023/07/10 08:42:31;;;;;;;10.67;5.17;;;;;;;;;;4966461;28;20190;-81
2023/07/10 08:45:38;;;;;;;10.27;5.73;;;;;;;;;;4967375;28;20206;-81
2023/07/10 08:49:04;;;;;;;9.77;5.20;;;;;;;;;;4966503;28;20230;-81
2023/07/10 08:52:15;;;;;;;7.07;4.97;;;;;;;;;;4955879;29;20204;-81
2023/07/10 08:55:27;;;;;;;10.07;5.23;;;;;;;;;;4956010;29;20182;-82
2023/07/10 08:58:36;;;;;;;10.30;5.13;;;;;;;;;;4955755;29;20227;-82
2023/07/10 09:01:45;;;;;;;7.50;5.30;;;;;;;;;;4956229;29;20212;-82
2023/07/10 09:04:50;;;;;;;9.50;4.67;;;;;;;;;;4956300;28;20625;-82
2023/07/10 09:07:55;;;;;;;10.98;5.22;;;;;;;;;;4955831;29;20217;-81
2023/07/10 09:11:03;;;;;;;10.33;5.00;;;;;;;;;;4968602;28;20535;-82
2023/07/10 09:14:22;;;;;;;11.87;5.87;;;;;;;;;;4945381;29;20194;-81
2023/07/10 09:17:36;;;;;;;10.33;6.10;;;;;;;;;;4956889;29;20182;-81
2023/07/10 09:20:40;;;;;;;11.60;5.00;;;;;;;;;;4956926;29;20200;-82
2023/07/10 09:23:46;;;;;;;9.43;5.35;;;;;;;;;;4956623;29;20190;-82
2023/07/10 09:26:50;;;;;;;10.75;5.30;;;;;;;;;;4945468;29;20228;-82
2023/07/10 09:29:56;;;;;;;9.55;5.22;;;;;;;;;;4967502;28;20226;-81
2023/07/10 09:33:02;;;;;;;13.45;5.30;;;;;;;;;;4956118;29;20186;-81
2023/07/10 09:36:18;;;;;;;11.05;5.30;;;;;;;;;;4967329;28;20190;-81
2023/07/10 09:39:31;;;;;;;11.70;5.43;;;;;;;;;;4957245;29;20233;-81
2023/07/10 09:42:35;;;;;;;11.15;5.03;;;;;;;;;;4968693;28;20219;-81
2023/07/10 09:45:44;;;;;;;8.38;4.95;;;;;;;;;;4958246;29;20193;-81
2023/07/10 09:48:51;;;;;;;11.68;5.15;;;;;;;;;;4957992;29;20229;-81
2023/07/10 09:51:58;;;;;;;9.55;5.35;;;;;;;;;;4958473;29;20627;-81
2023/07/10 09:55:12;;;;;;;8.25;5.22;;;;;;;;;;4959792;28;20181;-81
2023/07/10 09:58:17;;;;;;;7.18;5.03;;;;;;;;;;5002230;23;20236;-86
2023/07/10 10:01:29;;;;;;;7.25;4.78;;;;;;;;;;4967379;28;20516;-86
2023/07/10 10:20:49;;;;;;;6.28;4.80;;;;;;;;;;4924698;29;20180;-89
2023/07/10 10:24:22;;;;;;;11.30;4.65;;;;;;;;;;4908177;29;20178;-88
2023/07/10 10:28:36;;;;;;;9.77;4.90;;;;;;;;;;4908352;29;20360;-87
2023/07/10 10:32:24;;;;;;;9.30;4.55;;;;;;;;;;4947768;29;20172;-87
2023/07/10 10:36:00;;;;;;;10.30;4.35;;;;;;;;;;4958717;28;20195;-88
2023/07/10 10:39:44;;;;;;;7.93;5.03;;;;;;;;;;4947546;29;20202;-87
2023/07/10 10:43:06;;;;;;;8.13;4.72;;;;;;;;;;4946714;29;20666;-87
2023/07/10 10:46:43;;;;;;;9.13;4.85;;;;;;;;;;4958151;29;20188;-87
2023/07/10 10:50:30;;;;;;;7.13;4.00;;;;;;;;;;4946626;29;20183;-87
2023/07/10 10:53:53;;;;;;;9.10;4.38;;;;;;;;;;4937272;29;20188;-87
2023/07/10 10:57:47;;;;;;;10.02;4.30;;;;;;;;;;4958649;29;20231;-88
2023/07/10 11:01:30;;;;;;;7.22;4.85;;;;;;;;;;4946635;29;20204;-88
2023/07/10 11:04:40;;;;;;;5.35;3.83;;;;;;;;;;4958476;29;20184;-84
2023/07/10 11:07:50;;;;;;;6.40;3.83;;;;;;;;;;4959513;29;20228;-85
2023/07/10 11:10:57;;;;;;;5.45;3.00;;;;;;;;;;4948126;29;20181;-87
2023/07/10 11:15:18;;;;;;;4.70;3.30;;;;;;;;;;4965253;28;20207;-88
2023/07/10 11:18:48;;;;;;;5.63;3.50;;;;;;;;;;4946738;29;20216;-87
2023/07/10 11:21:53;;;;;;;3.65;2.75;;;;;;;;;;4946650;29;20180;-87
2023/07/10 11:25:04;;;;;;;6.38;3.03;;;;;;;;;;4957446;29;20184;-87
2023/07/10 11:28:25;;;;;;;8.90;2.72;;;;;;;;;;4946191;29;20216;-87
2023/07/10 11:31:30;;;;;;;4.80;2.83;;;;;;;;;;4946852;29;20516;-86
2023/07/10 11:34:37;;;;;;;5.03;3.50;;;;;;;;;;4946458;29;20180;-87
2023/07/10 11:37:47;;;;;;;4.57;2.83;;;;;;;;;;4946275;29;20223;-87
2023/07/10 11:41:07;;;;;;;8.30;3.00;;;;;;;;;;4957200;29;20184;-86
2023/07/10 11:44:14;;;;;;;4.57;2.55;;;;;;;;;;4957473;28;20183;-87
2023/07/10 11:47:30;;;;;;;5.40;2.67;;;;;;;;;;4935135;29;20223;-87
2023/07/10 11:50:34;;;;;;;8.25;2.75;;;;;;;;;;4935295;29;20180;-87
2023/07/10 11:53:38;;;;;;;4.57;2.92;;;;;;;;;;4957045;29;20187;-87
2023/07/10 11:57:10;;;;;;;4.68;2.83;;;;;;;;;;4934954;29;20567;-87
2023/07/10 12:00:14;;;;;;;3.58;2.70;;;;;;;;;;4957096;29;20188;-87
2023/07/10 12:03:19;;;;;;;2.80;2.60;;;;;;;;;;4945746;29;20187;-86
2023/07/10 12:06:25;;;;;;;4.05;3.28;;;;;;;;;;4935195;29;20180;-86
2023/07/10 12:09:29;;;;;;;4.65;3.03;;;;;;;;;;4946266;29;20184;-86
2023/07/10 12:12:33;;;;;;;3.95;2.78;;;;;;;;;;4934864;29;20188;-86
2023/07/10 12:15:42;;;;;;;5.25;2.90;;;;;;;;;;4934553;29;20547;-87
2023/07/10 12:19:47;;;;;;;6.20;2.85;;;;;;;;;;4967861;28;20203;-88
2023/07/10 12:22:59;;;;;;;4.88;2.92;;;;;;;;;;4936062;28;20204;-89
2023/07/10 12:26:05;;;;;;;6.35;2.63;;;;;;;;;;4944883;29;20195;-89
2023/07/10 12:29:12;;;;;;;5.78;3.10;;;;;;;;;;4945515;29;20520;-89
2023/07/10 12:32:16;;;;;;;5.10;3.13;;;;;;;;;;4945498;29;20180;-89
2023/07/10 12:35:26;;;;;;;7.72;3.17;;;;;;;;;;4934158;29;20188;-89
2023/07/10 12:38:32;;;;;;;5.65;3.40;;;;;;;;;;4934042;29;20558;-88
2023/07/10 12:41:42;;;;;;;5.03;3.20;;;;;;;;;;4956359;29;20627;-87
2023/07/10 12:44:46;;;;;;;5.55;3.60;;;;;;;;;;4957028;29;20188;-87
2023/07/10 12:47:55;;;;;;;9.35;3.45;;;;;;;;;;4955826;29;20211;-87
2023/07/10 12:51:37;;;;;;;5.40;3.80;;;;;;;;;;4956275;29;20188;-88
2023/07/10 12:54:46;;;;;;;6.28;3.55;;;;;;;;;;4944617;29;20184;-86
2023/07/10 12:57:58;;;;;;;6.10;3.30;;;;;;;;;;4957104;28;20706;-87
2023/07/10 13:01:35;;;;;;;6.63;3.67;;;;;;;;;;4945093;29;20516;-88
2023/07/10 13:05:17;;;;;;;7.55;3.47;;;;;;;;;;4944599;29;20535;-89
2023/07/10 13:08:36;;;;;;;5.90;3.45;;;;;;;;;;4955021;29;20211;-88
2023/07/10 13:11:46;;;;;;;6.65;3.30;;;;;;;;;;4936009;29;20196;-88
2023/07/10 13:15:04;;;;;;;6.75;3.50;;;;;;;;;;4944344;29;20180;-88
2023/07/10 13:18:28;;;;;;;4.53;3.35;;;;;;;;;;4933159;29;20231;-89
2023/07/10 13:21:32;;;;;;;7.50;3.38;;;;;;;;;;4955446;29;20180;-89
2023/07/10 13:24:36;;;;;;;6.28;4.07;;;;;;;;;;4933170;29;20203;-88
2023/07/10 13:27:40;;;;;;;7.43;3.42;;;;;;;;;;4955282;29;20562;-88
2023/07/10 13:30:46;;;;;;;9.13;3.88;;;;;;;;;;4933537;29;20187;-88
2023/07/10 13:33:50;;;;;;;6.03;3.72;;;;;;;;;;4943928;29;20635;-88
2023/07/10 13:36:54;;;;;;;7.30;3.60;;;;;;;;;;4943889;29;20211;-88
2023/07/10 13:39:58;;;;;;;4.60;3.42;;;;;;;;;;4943826;29;20211;-88
2023/07/10 13:43:10;;;;;;;5.82;3.53;;;;;;;;;;4944268;29;20180;-88
2023/07/10 13:46:20;;;;;;;10.10;3.95;;;;;;;;;;4933074;29;20180;-87
2023/07/10 13:49:24;;;;;;;5.10;3.60;;;;;;;;;;4933253;29;20185;-88
2023/07/10 13:52:29;;;;;;;4.72;3.08;;;;;;;;;;4933277;29;20511;-88
2023/07/10 13:55:33;;;;;;;6.05;3.40;;;;;;;;;;4943547;29;20179;-86
2023/07/10 13:58:39;;;;;;;3.92;3.15;;;;;;;;;;4965764;28;20207;-88
2023/07/10 14:01:44;;;;;;;5.82;3.25;;;;;;;;;;4955526;29;20203;-87
2023/07/10 14:04:49;;;;;;;8.60;3.17;;;;;;;;;;4943789;29;20192;-87
2023/07/10 14:07:53;;;;;;;4.90;3.08;;;;;;;;;;4954245;29;20215;-88
2023/07/10 14:10:59;;;;;;;5.93;3.72;;;;;;;;;;4954920;29;20180;-87
2023/07/10 14:14:03;;;;;;;6.35;3.42;;;;;;;;;;4932629;29;20184;-87
2023/07/10 14:17:51;;;;;;;5.03;3.42;;;;;;;;;;4943174;29;20219;-89
2023/07/10 14:40:59;;;;;;;6.43;3.60;;;;;;;;;;4925129;29;20221;-89
2023/07/10 14:44:41;;;;;;;6.80;3.85;;;;;;;;;;4931219;29;20204;-90
2023/07/10 14:47:46;;;;;;;8.60;4.03;;;;;;;;;;4916746;28;20217;-89
2023/07/10 14:50:50;;;;;;;6.97;4.22;;;;;;;;;;4957732;28;20199;-90
2023/07/10 14:53:54;;;;;;;7.95;4.28;;;;;;;;;;4946840;29;20180;-90
2023/07/10 14:56:59;;;;;;;7.00;4.32;;;;;;;;;;4935503;29;20227;-89
2023/07/10 15:00:23;;;;;;;6.32;3.90;;;;;;;;;;4936005;29;20216;-89
2023/07/10 15:03:27;;;;;;;4.95;4.03;;;;;;;;;;4935520;29;20192;-89
2023/07/10 15:06:32;;;;;;;5.28;3.80;;;;;;;;;;4958240;29;20215;-89
2023/07/10 15:09:35;;;;;;;9.52;4.00;;;;;;;;;;4947295;29;20176;-89
2023/07/10 15:12:40;;;;;;;6.40;3.90;;;;;;;;;;4959376;29;20628;-89
2023/07/10 15:15:44;;;;;;;7.72;4.30;;;;;;;;;;4947485;29;20639;-88
2023/07/10 15:19:25;;;;;;;5.95;4.00;;;;;;;;;;4936864;29;20556;-89
2023/07/10 15:22:37;;;;;;;7.57;4.07;;;;;;;;;;4968520;28;20212;-87
2023/07/10 15:25:41;;;;;;;6.13;4.20;;;;;;;;;;4946223;29;20187;-87
2023/07/10 15:28:46;;;;;;;5.85;4.10;;;;;;;;;;4957067;29;20176;-87
2023/07/10 15:31:55;;;;;;;9.57;4.15;;;;;;;;;;4946210;29;20192;-87
2023/07/10 15:34:59;;;;;;;5.60;3.80;;;;;;;;;;4946461;29;20188;-87
2023/07/10 15:38:04;;;;;;;6.50;4.20;;;;;;;;;;4934788;29;20587;-87
2023/07/10 15:41:23;;;;;;;8.90;4.38;;;;;;;;;;4934948;29;20184;-87
2023/07/10 15:44:27;;;;;;;7.55;4.45;;;;;;;;;;4945775;29;20191;-87
2023/07/10 15:47:34;;;;;;;9.20;4.38;;;;;;;;;;4935040;29;20215;-87
2023/07/10 15:50:53;;;;;;;6.63;3.88;;;;;;;;;;4945462;29;20196;-87
2023/07/10 15:53:59;;;;;;;5.85;3.92;;;;;;;;;;4956532;29;20255;-87
2023/07/10 15:57:03;;;;;;;6.50;3.58;;;;;;;;;;4956238;28;20231;-87
2023/07/10 16:00:13;;;;;;;7.78;4.03;;;;;;;;;;4945045;29;20232;-87
2023/07/10 16:03:19;;;;;;;8.13;3.95;;;;;;;;;;4987382;23;20169;-82
2023/07/10 16:06:23;;;;;;;8.07;4.03;;;;;;;;;;4996042;28;20522;-82
2023/07/10 16:09:28;;;;;;;6.03;3.63;;;;;;;;;;4985325;28;20517;-81
2023/07/10 16:12:32;;;;;;;5.75;3.50;;;;;;;;;;4996440;28;20178;-82
2023/07/10 16:15:36;;;;;;;6.20;3.88;;;;;;;;;;4965887;28;20195;-80
2023/07/10 16:18:40;;;;;;;6.78;3.88;;;;;;;;;;4977216;28;20234;-80
2023/07/10 16:21:49;;;;;;;6.47;3.65;;;;;;;;;;4966603;28;20187;-80
2023/07/10 16:24:53;;;;;;;4.88;3.72;;;;;;;;;;4976985;28;20219;-83
2023/07/10 16:27:58;;;;;;;6.88;3.88;;;;;;;;;;4965864;28;20203;-83
2023/07/10 16:31:02;;;;;;;8.45;3.75;;;;;;;;;;4965845;28;20179;-83
2023/07/10 16:34:25;;;;;;;8.98;4.15;;;;;;;;;;4966119;28;20211;-83
2023/07/10 16:37:29;;;;;;;5.22;3.30;;;;;;;;;;4955202;28;20179;-83
2023/07/10 16:40:33;;;;;;;10.93;3.60;;;;;;;;;;4965706;28;20211;-83
2023/07/10 16:43:38;;;;;;;4.40;3.72;;;;;;;;;;4966183;28;20221;-83
2023/07/10 16:46:42;;;;;;;6.05;3.70;;;;;;;;;;4976034;28;20179;-82
2023/07/10 16:49:46;;;;;;;3.92;3.40;;;;;;;;;;4965769;28;20175;-83
2023/07/10 16:52:50;;;;;;;4.85;3.85;;;;;;;;;;4976566;28;20184;-83
2023/07/10 16:55:56;;;;;;;12.13;4.20;;;;;;;;;;4965444;28;20187;-83
2023/07/10 16:59:00;;;;;;;5.97;3.95;;;;;;;;;;4954834;28;20684;-83
2023/07/10 17:02:20;;;;;;;4.50;3.60;;;;;;;;;;4977331;28;20179;-83
2023/07/10 17:05:24;;;;;;;6.93;3.63;;;;;;;;;;4976922;28;20230;-83
2023/07/10 17:08:29;;;;;;;15.15;4.03;;;;;;;;;;4976312;28;20179;-83
2023/07/10 17:11:37;;;;;;;5.90;4.10;;;;;;;;;;4976758;28;20234;-83
2023/07/10 17:14:41;;;;;;;6.10;4.00;;;;;;;;;;4965429;28;20223;-83
2023/07/10 17:17:46;;;;;;;6.07;4.15;;;;;;;;;;4954488;28;20186;-83
2023/07/10 17:20:51;;;;;;;6.65;4.22;;;;;;;;;;4965402;28;20203;-83
2023/07/10 17:23:55;;;;;;;6.65;4.10;;;;;;;;;;4976434;28;20561;-82
2023/07/10 17:27:00;;;;;;;7.88;4.47;;;;;;;;;;4964123;28;20728;-82
2023/07/10 17:30:06;;;;;;;6.82;4.38;;;;;;;;;;4963040;28;20204;-82
2023/07/10 17:33:44;;;;;;;11.27;4.32;;;;;;;;;;4963828;28;20181;-83
2023/07/10 17:36:48;;;;;;;6.20;4.18;;;;;;;;;;4954444;28;20194;-82
2023/07/10 17:39:52;;;;;;;6.43;4.28;;;;;;;;;;4975980;28;20184;-83
2023/07/10 17:42:56;;;;;;;9.65;4.32;;;;;;;;;;4976040;28;20191;-82
2023/07/10 17:46:02;;;;;;;6.65;4.13;;;;;;;;;;4976207;28;20182;-83
2023/07/10 17:49:10;;;;;;;7.45;4.25;;;;;;;;;;4964954;28;20183;-83
2023/07/10 17:52:17;;;;;;;5.10;3.50;;;;;;;;;;4964724;28;20193;-83
2023/07/10 17:55:21;;;;;;;4.30;3.70;;;;;;;;;;4976439;28;20218;-83
2023/07/10 17:58:27;;;;;;;6.20;4.60;;;;;;;;;;4965340;28;20182;-83
2023/07/10 18:01:32;;;;;;;8.65;4.55;;;;;;;;;;4976831;28;20529;-83
2023/07/10 18:04:36;;;;;;;4.82;4.32;;;;;;;;;;4965173;28;20696;-83
2023/07/10 18:07:40;;;;;;;6.60;4.20;;;;;;;;;;4976365;28;20186;-83
2023/07/10 18:10:47;;;;;;;6.63;4.72;;;;;;;;;;4965772;28;20217;-83
2023/07/10 18:13:51;;;;;;;5.25;4.35;;;;;;;;;;4965492;28;20221;-82
2023/07/10 18:16:56;;;;;;;8.07;4.57;;;;;;;;;;4958410;28;20188;-83
2023/07/10 18:20:00;;;;;;;5.50;3.80;;;;;;;;;;4957870;28;20179;-83
2023/07/10 18:23:17;;;;;;;7.80;4.65;;;;;;;;;;4969286;28;20230;-82
2023/07/10 18:26:25;;;;;;;5.40;4.65;;;;;;;;;;4969014;28;20263;-83
2023/07/10 18:29:29;;;;;;;9.13;4.68;;;;;;;;;;4968556;28;20555;-82
2023/07/10 18:32:35;;;;;;;8.00;4.55;;;;;;;;;;4969074;28;20186;-83
2023/07/10 18:35:40;;;;;;;5.25;4.13;;;;;;;;;;4979704;28;20181;-83
2023/07/10 18:38:44;;;;;;;6.15;4.60;;;;;;;;;;4969243;28;20204;-83
2023/07/10 18:41:48;;;;;;;11.18;4.38;;;;;;;;;;4979665;28;20177;-83
2023/07/10 18:44:54;;;;;;;8.05;4.47;;;;;;;;;;4957529;28;20220;-82
2023/07/10 18:47:58;;;;;;;8.43;4.55;;;;;;;;;;4982237;28;20201;-82
2023/07/10 18:51:08;;;;;;;6.70;4.38;;;;;;;;;;4958116;28;20224;-82
2023/07/10 18:54:16;;;;;;;15.48;5.22;;;;;;;;;;4969039;28;20225;-83
2023/07/10 18:57:20;;;;;;;10.90;4.30;;;;;;;;;;4980512;28;20175;-82
2023/07/10 19:00:24;;;;;;;8.30;4.53;;;;;;;;;;4979707;28;20184;-83
2023/07/10 19:03:29;;;;;;;9.07;4.93;;;;;;;;;;4957391;28;20223;-83
2023/07/10 19:06:37;;;;;;;5.18;4.15;;;;;;;;;;4980102;28;20184;-82
2023/07/10 19:09:43;;;;;;;7.00;4.63;;;;;;;;;;4968152;28;20664;-82
2023/07/10 19:12:47;;;;;;;7.07;4.45;;;;;;;;;;4980729;28;20181;-82
2023/07/10 19:15:58;;;;;;;6.72;4.20;;;;;;;;;;4967784;28;20180;-82
2023/07/10 19:19:07;;;;;;;6.45;3.97;;;;;;;;;;4978983;28;20186;-82
2023/07/10 19:22:11;;;;;;;8.48;4.55;;;;;;;;;;4979145;28;20188;-82